Terminal Aerodrome Forecast
Issued by NWS Jackson, MS

Home | Current Version | Previous Version | Text Only | Print | Product List | Glossary On
Versions: 1 2 3 4 5 6 7 8 9 10 11 12 13 14 15 16
000
FTUS44 KJAN 290522
TAFGWO
TAF
KGWO 290522Z 2906/3006 VRB03KT P6SM SKC
     FM291000 VRB03KT 4SM BR SKC
     FM291400 17004KT P6SM SCT050=

USA.gov is the U.S. government's official web portal to all federal, state and local government web resources and services.